Camellia — VRCP9 — position and weather

sailwx.info

Track history (hours):
 
Tides and Currents Weather Stations Pressure Air Temp Water Temp Dewpoint Dewpoint Depression Visibility Wind Speed Wind Dir Waves Ship Positions

Camellia

Last reported at 2014-Dec-21 03:33 UTC. Time now 2014-Dec-21 13:33 UTC.
Position N 41°22' E 029°34'.

Length 222 m; draft 7.8 m.

Type: Ship (hazmat cat C). MMSI: 477791900.

Date/timePositionNaut miles runAvg speedWind from/ knotsBaromVisibWave heightAir tempDewpointWater temp
2014-Dec-21 03:33N 41°22' E 029°34'49 6.1
2014-Dec-20 19:33N 40°46' E 028°50'1 0.6
2014-Dec-20 18:34N 40°46' E 028°50'1 0.6
2014-Dec-20 17:32N 40°47' E 028°51'1 0.7
2014-Dec-20 16:32N 40°48' E 028°51'1 0.7
2014-Dec-20 15:32N 40°48' E 028°51'1010.0
2014-Dec-20 14:34N 40°57' E 028°57'4 0.4
2014-Dec-20 05:29N 41°00' E 028°60'7 8.0
2014-Dec-20 04:33N 40°54' E 028°55'1010.0
2014-Dec-20 03:31N 40°52' E 028°42'6 0.6
2014-Dec-19 17:15N 40°58' E 028°41'4 5.7
2014-Dec-19 16:33N 40°54' E 028°41'9 9.0
2014-Dec-19 15:32N 40°46' E 028°48'0 0.3
2014-Dec-19 14:32N 40°46' E 028°48'1 0.8
2014-Dec-19 13:33N 40°46' E 028°47'1 0.6
2014-Dec-19 12:33N 40°46' E 028°46'2 1.5
2014-Dec-19 11:32N 40°45' E 028°47'0 0.1
2014-Dec-19 10:32N 40°45' E 028°47'1 0.7
2014-Dec-19 09:29N 40°46' E 028°47'1 0.9
2014-Dec-19 08:32N 40°46' E 028°46'1 1.3
2014-Dec-19 07:33N 40°46' E 028°44'1 1.0
2014-Dec-19 06:33N 40°47' E 028°44'1 0.7
2014-Dec-19 05:33N 40°47' E 028°45'3 2.5
2014-Dec-19 04:33N 40°45' E 028°46'1 1.1
2014-Dec-19 03:33N 40°46' E 028°46'0 0.1
2014-Dec-19 02:33N 40°46' E 028°46'1 0.8
2014-Dec-19 01:32N 40°45' E 028°46'1 0.9
2014-Dec-19 00:33N 40°46' E 028°46'2 1.9
2014-Dec-18 23:32N 40°44' E 028°47'0 0.4
2014-Dec-18 22:33N 40°45' E 028°47'0 0.4
2014-Dec-18 21:30N 40°45' E 028°47'0 0.4
2014-Dec-18 20:33N 40°45' E 028°46'0 0.4
2014-Dec-18 19:33N 40°46' E 028°46'0 0.3
2014-Dec-18 18:32N 40°46' E 028°46'0 0.3
2014-Dec-18 17:32N 40°46' E 028°46'0 0.2
2014-Dec-18 16:33N 40°47' E 028°46'5 5.4
2014-Dec-18 15:33N 40°45' E 028°53'1413.7
2014-Dec-18 14:33N 40°44' E 029°10'1413.9
2014-Dec-18 13:33N 40°45' E 029°29'3 0.3
2014-Dec-18 05:12N 40°46' E 029°32'1 0.5
2014-Dec-18 03:33N 40°45' E 029°31'1110.9
2014-Dec-18 02:33N 40°43' E 029°17'1717.5
2014-Dec-18 01:33N 40°41' E 028°54'1513.2
2014-Dec-18 00:27N 40°27' E 028°48'12 0.6
2014-Dec-17 04:33N 40°26' E 029°03'1411.0
2014-Dec-17 03:20N 40°28' E 028°46'13314.4
2014-Dec-16 18:09N 39°56' E 025°57'1720.1
2014-Dec-16 17:19N 39°42' E 025°45'10220.3
2014-Dec-16 12:16N 38°11' E 024°45'1620.1
2014-Dec-16 11:30N 37°57' E 024°37'1919.9
2014-Dec-16 10:33N 37°39' E 024°32'2019.5
2014-Dec-16 09:33N 37°23' E 024°16'2120.7
2014-Dec-16 08:33N 37°03' E 024°12'2019.5
2014-Dec-16 07:33N 36°46' E 023°59'2120.4
2014-Dec-16 06:33N 36°31' E 023°42'  
2014-Dec-12 21:33N 37°08' E 002°59'2019.0
2014-Dec-12 20:30N 37°03' E 002°34'1818.8
2014-Dec-12 19:33N 36°60' E 002°12'1918.4
2014-Dec-12 18:32N 36°55' E 001°50'10118.9
2014-Dec-12 13:09N 36°31' W 000°13'9420.4
2014-Dec-12 08:33N 36°10' W 002°07'14620.4
2014-Dec-12 01:24N 35°59' W 005°07'1618.9
2014-Dec-12 00:34N 35°57' W 005°27'  
Track history (hours):
 
Tides and Currents Weather Stations Pressure Air Temp Water Temp Dewpoint Dewpoint Depression Visibility Wind Speed Wind Dir Waves Ship Positions

Camellia

Last reported at 2014-Dec-21 03:33 UTC. Time now 2014-Dec-21 13:33 UTC.
Position N 41°22' E 029°34'.

Length 222 m; draft 7.8 m.

Type: Ship (hazmat cat C). MMSI: 477791900.

Date/timePositionNaut miles runAvg speedWind from/ knotsBaromVisibWave heightAir tempDewpointWater temp
2014-Dec-21 03:33N 41°22' E 029°34'49 6.1
2014-Dec-20 19:33N 40°46' E 028°50'1 0.6
2014-Dec-20 18:34N 40°46' E 028°50'1 0.6
2014-Dec-20 17:32N 40°47' E 028°51'1 0.7
2014-Dec-20 16:32N 40°48' E 028°51'1 0.7
2014-Dec-20 15:32N 40°48' E 028°51'1010.0
2014-Dec-20 14:34N 40°57' E 028°57'4 0.4
2014-Dec-20 05:29N 41°00' E 028°60'7 8.0
2014-Dec-20 04:33N 40°54' E 028°55'1010.0
2014-Dec-20 03:31N 40°52' E 028°42'6 0.6
2014-Dec-19 17:15N 40°58' E 028°41'4 5.7
2014-Dec-19 16:33N 40°54' E 028°41'9 9.0
2014-Dec-19 15:32N 40°46' E 028°48'0 0.3
2014-Dec-19 14:32N 40°46' E 028°48'1 0.8
2014-Dec-19 13:33N 40°46' E 028°47'1 0.6
2014-Dec-19 12:33N 40°46' E 028°46'2 1.5
2014-Dec-19 11:32N 40°45' E 028°47'0 0.1
2014-Dec-19 10:32N 40°45' E 028°47'1 0.7
2014-Dec-19 09:29N 40°46' E 028°47'1 0.9
2014-Dec-19 08:32N 40°46' E 028°46'1 1.3
2014-Dec-19 07:33N 40°46' E 028°44'1 1.0
2014-Dec-19 06:33N 40°47' E 028°44'1 0.7
2014-Dec-19 05:33N 40°47' E 028°45'3 2.5
2014-Dec-19 04:33N 40°45' E 028°46'1 1.1
2014-Dec-19 03:33N 40°46' E 028°46'0 0.1
2014-Dec-19 02:33N 40°46' E 028°46'1 0.8
2014-Dec-19 01:32N 40°45' E 028°46'1 0.9
2014-Dec-19 00:33N 40°46' E 028°46'2 1.9
2014-Dec-18 23:32N 40°44' E 028°47'0 0.4
2014-Dec-18 22:33N 40°45' E 028°47'0 0.4
2014-Dec-18 21:30N 40°45' E 028°47'0 0.4
2014-Dec-18 20:33N 40°45' E 028°46'0 0.4
2014-Dec-18 19:33N 40°46' E 028°46'0 0.3
2014-Dec-18 18:32N 40°46' E 028°46'0 0.3
2014-Dec-18 17:32N 40°46' E 028°46'0 0.2
2014-Dec-18 16:33N 40°47' E 028°46'5 5.4
2014-Dec-18 15:33N 40°45' E 028°53'1413.7
2014-Dec-18 14:33N 40°44' E 029°10'1413.9
2014-Dec-18 13:33N 40°45' E 029°29'3 0.3
2014-Dec-18 05:12N 40°46' E 029°32'1 0.5
2014-Dec-18 03:33N 40°45' E 029°31'1110.9
2014-Dec-18 02:33N 40°43' E 029°17'1717.5
2014-Dec-18 01:33N 40°41' E 028°54'1513.2
2014-Dec-18 00:27N 40°27' E 028°48'12 0.6
2014-Dec-17 04:33N 40°26' E 029°03'1411.0
2014-Dec-17 03:20N 40°28' E 028°46'13314.4
2014-Dec-16 18:09N 39°56' E 025°57'1720.1
2014-Dec-16 17:19N 39°42' E 025°45'10220.3
2014-Dec-16 12:16N 38°11' E 024°45'1620.1
2014-Dec-16 11:30N 37°57' E 024°37'1919.9
2014-Dec-16 10:33N 37°39' E 024°32'2019.5
2014-Dec-16 09:33N 37°23' E 024°16'2120.7
2014-Dec-16 08:33N 37°03' E 024°12'2019.5
2014-Dec-16 07:33N 36°46' E 023°59'2120.4
2014-Dec-16 06:33N 36°31' E 023°42'  
2014-Dec-12 21:33N 37°08' E 002°59'2019.0
2014-Dec-12 20:30N 37°03' E 002°34'1818.8
2014-Dec-12 19:33N 36°60' E 002°12'1918.4
2014-Dec-12 18:32N 36°55' E 001°50'10118.9
2014-Dec-12 13:09N 36°31' W 000°13'9420.4
2014-Dec-12 08:33N 36°10' W 002°07'14620.4
2014-Dec-12 01:24N 35°59' W 005°07'1618.9
2014-Dec-12 00:34N 35°57' W 005°27'  

Dump ship's entire track history